sensor_id;sensor_type;location;lat;lon;timestamp;temperature;humidity
21191;DHT22;10753;52.304;20.990;2022-08-21T00:00:35;21.70;99.90
21191;DHT22;10753;52.304;20.990;2022-08-21T00:03:05;21.70;99.90
21191;DHT22;10753;52.304;20.990;2022-08-21T00:05:33;21.70;1.00
21191;DHT22;10753;52.304;20.990;2022-08-21T00:08:00;21.70;99.90
21191;DHT22;10753;52.304;20.990;2022-08-21T00:10:26;21.60;1.00
21191;DHT22;10753;52.304;20.990;2022-08-21T00:12:52;21.60;1.00
21191;DHT22;10753;52.304;20.990;2022-08-21T00:15:26;21.60;1.00
21191;DHT22;10753;52.304;20.990;2022-08-21T00:17:54;21.50;1.00
21191;DHT22;10753;52.304;20.990;2022-08-21T00:20:21;21.50;1.00
21191;DHT22;10753;52.304;20.990;2022-08-21T00:22:47;21.40;1.00
21191;DHT22;10753;52.304;20.990;2022-08-21T00:25:14;21.40;1.00
21191;DHT22;10753;52.304;20.990;2022-08-21T00:27:40;21.30;1.00
21191;DHT22;10753;52.304;20.990;2022-08-21T00:30:10;21.30;1.00
21191;DHT22;10753;52.304;20.990;2022-08-21T00:32:37;21.20;1.00
21191;DHT22;10753;52.304;20.990;2022-08-21T00:35:08;21.20;1.00
21191;DHT22;10753;52.304;20.990;2022-08-21T00:37:34;21.20;1.00
21191;DHT22;10753;52.304;20.990;2022-08-21T00:40:00;21.10;1.00
21191;DHT22;10753;52.304;20.990;2022-08-21T00:42:28;21.00;1.00
21191;DHT22;10753;52.304;20.990;2022-08-21T00:44:54;21.10;1.00
21191;DHT22;10753;52.304;20.990;2022-08-21T00:47:19;20.90;1.00
21191;DHT22;10753;52.304;20.990;2022-08-21T00:49:45;20.90;1.00
21191;DHT22;10753;52.304;20.990;2022-08-21T00:52:15;20.90;4.40
21191;DHT22;10753;52.304;20.990;2022-08-21T00:54:43;20.90;1.00
21191;DHT22;10753;52.304;20.990;2022-08-21T00:57:14;20.90;99.90
21191;DHT22;10753;52.304;20.990;2022-08-21T00:59:43;20.80;99.90
21191;DHT22;10753;52.304;20.990;2022-08-21T01:02:09;20.80;99.90
21191;DHT22;10753;52.304;20.990;2022-08-21T01:04:35;20.70;99.90
21191;DHT22;10753;52.304;20.990;2022-08-21T01:07:02;20.80;99.90
21191;DHT22;10753;52.304;20.990;2022-08-21T01:09:28;20.80;99.90
21191;DHT22;10753;52.304;20.990;2022-08-21T01:11:54;20.80;99.90
21191;DHT22;10753;52.304;20.990;2022-08-21T01:14:19;20.80;1.00
21191;DHT22;10753;52.304;20.990;2022-08-21T01:16:49;20.80;1.00
21191;DHT22;10753;52.304;20.990;2022-08-21T01:19:17;20.80;1.00
21191;DHT22;10753;52.304;20.990;2022-08-21T01:21:43;20.80;1.00
21191;DHT22;10753;52.304;20.990;2022-08-21T01:24:09;20.70;1.00
21191;DHT22;10753;52.304;20.990;2022-08-21T01:26:36;20.70;1.00
21191;DHT22;10753;52.304;20.990;2022-08-21T01:31:46;20.60;1.00
21191;DHT22;10753;52.304;20.990;2022-08-21T01:34:12;20.50;1.00
21191;DHT22;10753;52.304;20.990;2022-08-21T01:36:37;20.40;1.00
21191;DHT22;10753;52.304;20.990;2022-08-21T01:39:04;20.30;1.00
21191;DHT22;10753;52.304;20.990;2022-08-21T01:41:30;20.20;1.00
21191;DHT22;10753;52.304;20.990;2022-08-21T01:43:56;20.10;1.00
21191;DHT22;10753;52.304;20.990;2022-08-21T01:46:21;20.00;99.90
21191;DHT22;10753;52.304;20.990;2022-08-21T01:48:47;19.90;1.00
21191;DHT22;10753;52.304;20.990;2022-08-21T01:51:13;19.90;1.00
21191;DHT22;10753;52.304;20.990;2022-08-21T01:53:39;19.80;1.00
21191;DHT22;10753;52.304;20.990;2022-08-21T01:56:08;19.80;1.00
21191;DHT22;10753;52.304;20.990;2022-08-21T01:58:34;19.70;1.00
21191;DHT22;10753;52.304;20.990;2022-08-21T02:01:01;19.60;1.00
21191;DHT22;10753;52.304;20.990;2022-08-21T02:03:29;19.60;1.00
21191;DHT22;10753;52.304;20.990;2022-08-21T02:05:55;19.60;1.00
21191;DHT22;10753;52.304;20.990;2022-08-21T02:08:22;19.50;99.90
21191;DHT22;10753;52.304;20.990;2022-08-21T02:10:49;19.60;1.00
21191;DHT22;10753;52.304;20.990;2022-08-21T02:13:16;19.50;1.00
21191;DHT22;10753;52.304;20.990;2022-08-21T02:15:42;19.50;1.00
21191;DHT22;10753;52.304;20.990;2022-08-21T02:18:07;19.40;1.00
21191;DHT22;10753;52.304;20.990;2022-08-21T02:20:36;19.40;1.00
21191;DHT22;10753;52.304;20.990;2022-08-21T02:23:03;19.40;1.00
21191;DHT22;10753;52.304;20.990;2022-08-21T02:25:29;19.30;99.90
21191;DHT22;10753;52.304;20.990;2022-08-21T02:27:56;19.30;1.00
21191;DHT22;10753;52.304;20.990;2022-08-21T02:30:31;19.40;1.00
21191;DHT22;10753;52.304;20.990;2022-08-21T02:32:57;19.40;99.90
21191;DHT22;10753;52.304;20.990;2022-08-21T02:35:23;19.40;99.90
21191;DHT22;10753;52.304;20.990;2022-08-21T02:37:54;19.40;99.90
21191;DHT22;10753;52.304;20.990;2022-08-21T02:40:23;19.40;1.00
21191;DHT22;10753;52.304;20.990;2022-08-21T02:42:48;19.40;1.00
21191;DHT22;10753;52.304;20.990;2022-08-21T02:45:14;19.40;1.00
21191;DHT22;10753;52.304;20.990;2022-08-21T02:47:46;19.40;1.00
21191;DHT22;10753;52.304;20.990;2022-08-21T02:50:12;19.30;1.00
21191;DHT22;10753;52.304;20.990;2022-08-21T02:52:38;19.20;99.90
21191;DHT22;10753;52.304;20.990;2022-08-21T02:55:04;19.20;2.90
21191;DHT22;10753;52.304;20.990;2022-08-21T02:57:30;19.10;99.90
21191;DHT22;10753;52.304;20.990;2022-08-21T02:59:56;19.10;99.90
21191;DHT22;10753;52.304;20.990;2022-08-21T03:02:22;19.10;99.90
21191;DHT22;10753;52.304;20.990;2022-08-21T03:04:48;19.00;99.90
21191;DHT22;10753;52.304;20.990;2022-08-21T03:07:13;19.00;99.90
21191;DHT22;10753;52.304;20.990;2022-08-21T03:09:40;19.00;1.00
21191;DHT22;10753;52.304;20.990;2022-08-21T03:12:06;19.00;1.00
21191;DHT22;10753;52.304;20.990;2022-08-21T03:14:31;19.00;1.00
21191;DHT22;10753;52.304;20.990;2022-08-21T03:16:57;19.00;1.00
21191;DHT22;10753;52.304;20.990;2022-08-21T03:19:23;19.00;10.80
21191;DHT22;10753;52.304;20.990;2022-08-21T03:21:48;19.00;20.80
21191;DHT22;10753;52.304;20.990;2022-08-21T03:24:14;19.00;57.20
21191;DHT22;10753;52.304;20.990;2022-08-21T03:26:40;19.00;99.90
21191;DHT22;10753;52.304;20.990;2022-08-21T03:29:05;19.00;94.10
21191;DHT22;10753;52.304;20.990;2022-08-21T03:31:32;19.00;8.60
21191;DHT22;10753;52.304;20.990;2022-08-21T03:33:58;19.00;99.90
21191;DHT22;10753;52.304;20.990;2022-08-21T03:36:24;19.00;99.90
21191;DHT22;10753;52.304;20.990;2022-08-21T03:38:51;19.00;1.00
21191;DHT22;10753;52.304;20.990;2022-08-21T03:41:16;19.00;17.50
21191;DHT22;10753;52.304;20.990;2022-08-21T03:43:42;19.00;1.00
21191;DHT22;10753;52.304;20.990;2022-08-21T03:46:08;19.10;1.00
21191;DHT22;10753;52.304;20.990;2022-08-21T03:48:35;19.10;1.00
21191;DHT22;10753;52.304;20.990;2022-08-21T03:51:02;19.00;1.00
21191;DHT22;10753;52.304;20.990;2022-08-21T03:53:28;19.10;1.00
21191;DHT22;10753;52.304;20.990;2022-08-21T03:55:56;19.20;1.00
21191;DHT22;10753;52.304;20.990;2022-08-21T03:58:26;19.20;1.00
21191;DHT22;10753;52.304;20.990;2022-08-21T04:00:53;19.30;1.00
21191;DHT22;10753;52.304;20.990;2022-08-21T04:03:19;19.40;99.90
21191;DHT22;10753;52.304;20.990;2022-08-21T04:05:45;19.40;99.90
21191;DHT22;10753;52.304;20.990;2022-08-21T04:08:12;19.60;28.20
21191;DHT22;10753;52.304;20.990;2022-08-21T04:10:39;19.50;1.00
21191;DHT22;10753;52.304;20.990;2022-08-21T04:13:06;19.60;1.00
21191;DHT22;10753;52.304;20.990;2022-08-21T04:15:32;19.70;1.00
21191;DHT22;10753;52.304;20.990;2022-08-21T04:17:57;19.80;1.00
21191;DHT22;10753;52.304;20.990;2022-08-21T04:20:24;19.90;99.90
21191;DHT22;10753;52.304;20.990;2022-08-21T04:22:51;20.00;7.20
21191;DHT22;10753;52.304;20.990;2022-08-21T04:25:19;20.00;1.00
21191;DHT22;10753;52.304;20.990;2022-08-21T04:27:46;20.20;1.00
21191;DHT22;10753;52.304;20.990;2022-08-21T04:30:13;20.30;99.90
21191;DHT22;10753;52.304;20.990;2022-08-21T04:32:42;20.40;99.90
21191;DHT22;10753;52.304;20.990;2022-08-21T04:35:10;20.50;1.00
21191;DHT22;10753;52.304;20.990;2022-08-21T04:37:36;20.60;1.00
21191;DHT22;10753;52.304;20.990;2022-08-21T04:40:03;20.70;99.90
21191;DHT22;10753;52.304;20.990;2022-08-21T04:42:29;20.80;99.90
21191;DHT22;10753;52.304;20.990;2022-08-21T04:44:55;21.00;1.00
21191;DHT22;10753;52.304;20.990;2022-08-21T04:47:21;21.10;1.00
21191;DHT22;10753;52.304;20.990;2022-08-21T04:49:47;21.20;99.90
21191;DHT22;10753;52.304;20.990;2022-08-21T04:52:15;21.30;99.90
21191;DHT22;10753;52.304;20.990;2022-08-21T04:54:44;21.50;13.70
21191;DHT22;10753;52.304;20.990;2022-08-21T04:57:11;21.60;1.00
21191;DHT22;10753;52.304;20.990;2022-08-21T04:59:44;21.80;1.00
21191;DHT22;10753;52.304;20.990;2022-08-21T05:02:11;21.90;1.00
21191;DHT22;10753;52.304;20.990;2022-08-21T05:04:43;22.20;99.90
21191;DHT22;10753;52.304;20.990;2022-08-21T05:07:19;22.40;99.90
21191;DHT22;10753;52.304;20.990;2022-08-21T05:09:45;22.60;36.90
21191;DHT22;10753;52.304;20.990;2022-08-21T05:12:12;22.80;1.00
21191;DHT22;10753;52.304;20.990;2022-08-21T05:14:37;23.00;1.00
21191;DHT22;10753;52.304;20.990;2022-08-21T05:17:03;23.10;1.00
21191;DHT22;10753;52.304;20.990;2022-08-21T05:19:29;23.10;1.00
21191;DHT22;10753;52.304;20.990;2022-08-21T05:21:55;23.30;1.00
21191;DHT22;10753;52.304;20.990;2022-08-21T05:24:21;23.40;1.00
21191;DHT22;10753;52.304;20.990;2022-08-21T05:26:47;23.60;1.00
21191;DHT22;10753;52.304;20.990;2022-08-21T05:29:14;23.90;1.00
21191;DHT22;10753;52.304;20.990;2022-08-21T05:31:40;24.00;99.90
21191;DHT22;10753;52.304;20.990;2022-08-21T05:34:05;24.10;99.90
21191;DHT22;10753;52.304;20.990;2022-08-21T05:36:31;24.30;99.90
21191;DHT22;10753;52.304;20.990;2022-08-21T05:38:57;24.60;99.90
21191;DHT22;10753;52.304;20.990;2022-08-21T05:41:23;24.80;99.90
21191;DHT22;10753;52.304;20.990;2022-08-21T05:43:49;25.00;99.90
21191;DHT22;10753;52.304;20.990;2022-08-21T05:46:15;25.10;99.90
21191;DHT22;10753;52.304;20.990;2022-08-21T05:48:40;25.40;99.90
21191;DHT22;10753;52.304;20.990;2022-08-21T05:51:09;25.50;99.90
21191;DHT22;10753;52.304;20.990;2022-08-21T05:53:35;25.60;67.60
21191;DHT22;10753;52.304;20.990;2022-08-21T05:56:01;25.80;46.00
21191;DHT22;10753;52.304;20.990;2022-08-21T05:58:29;25.90;1.00
21191;DHT22;10753;52.304;20.990;2022-08-21T06:00:55;25.90;1.00
21191;DHT22;10753;52.304;20.990;2022-08-21T06:03:26;26.20;1.00
21191;DHT22;10753;52.304;20.990;2022-08-21T06:05:53;26.40;1.00
21191;DHT22;10753;52.304;20.990;2022-08-21T06:08:20;26.70;1.00
21191;DHT22;10753;52.304;20.990;2022-08-21T06:10:47;26.80;1.00
21191;DHT22;10753;52.304;20.990;2022-08-21T06:13:13;26.90;1.00
21191;DHT22;10753;52.304;20.990;2022-08-21T06:15:39;26.90;1.00
21191;DHT22;10753;52.304;20.990;2022-08-21T06:18:05;27.30;1.00
21191;DHT22;10753;52.304;20.990;2022-08-21T06:20:30;27.90;1.00
21191;DHT22;10753;52.304;20.990;2022-08-21T06:22:57;28.70;1.00
21191;DHT22;10753;52.304;20.990;2022-08-21T06:25:23;29.00;1.00
21191;DHT22;10753;52.304;20.990;2022-08-21T06:27:50;29.10;1.00
21191;DHT22;10753;52.304;20.990;2022-08-21T06:30:15;29.50;1.00
21191;DHT22;10753;52.304;20.990;2022-08-21T06:32:41;29.70;1.00
21191;DHT22;10753;52.304;20.990;2022-08-21T06:35:07;29.60;1.00
21191;DHT22;10753;52.304;20.990;2022-08-21T06:37:33;30.00;1.00
21191;DHT22;10753;52.304;20.990;2022-08-21T06:39:59;30.70;1.00
21191;DHT22;10753;52.304;20.990;2022-08-21T06:42:24;31.50;1.00
21191;DHT22;10753;52.304;20.990;2022-08-21T06:44:52;32.70;1.00
21191;DHT22;10753;52.304;20.990;2022-08-21T06:47:17;34.10;1.00
21191;DHT22;10753;52.304;20.990;2022-08-21T06:49:43;35.00;1.00
21191;DHT22;10753;52.304;20.990;2022-08-21T06:52:10;35.60;1.00
21191;DHT22;10753;52.304;20.990;2022-08-21T06:54:36;35.90;1.00
21191;DHT22;10753;52.304;20.990;2022-08-21T06:57:02;36.40;1.00
21191;DHT22;10753;52.304;20.990;2022-08-21T06:59:28;37.10;1.00
21191;DHT22;10753;52.304;20.990;2022-08-21T07:01:54;37.80;1.00
21191;DHT22;10753;52.304;20.990;2022-08-21T07:04:19;38.30;1.00
21191;DHT22;10753;52.304;20.990;2022-08-21T07:06:45;38.60;1.00
21191;DHT22;10753;52.304;20.990;2022-08-21T07:09:11;38.50;1.00
21191;DHT22;10753;52.304;20.990;2022-08-21T07:11:37;38.90;1.00
21191;DHT22;10753;52.304;20.990;2022-08-21T07:14:03;39.30;1.00
21191;DHT22;10753;52.304;20.990;2022-08-21T07:16:29;40.10;1.00
21191;DHT22;10753;52.304;20.990;2022-08-21T07:18:55;40.90;1.00
21191;DHT22;10753;52.304;20.990;2022-08-21T07:21:21;41.80;1.00
21191;DHT22;10753;52.304;20.990;2022-08-21T07:23:50;42.80;1.00
21191;DHT22;10753;52.304;20.990;2022-08-21T07:26:18;43.40;1.00
21191;DHT22;10753;52.304;20.990;2022-08-21T07:28:46;43.70;1.00
21191;DHT22;10753;52.304;20.990;2022-08-21T07:31:14;43.80;1.00
21191;DHT22;10753;52.304;20.990;2022-08-21T07:33:42;44.00;1.00
21191;DHT22;10753;52.304;20.990;2022-08-21T07:36:08;44.50;1.00
21191;DHT22;10753;52.304;20.990;2022-08-21T07:38:34;45.00;1.00
21191;DHT22;10753;52.304;20.990;2022-08-21T07:41:01;45.40;1.00
21191;DHT22;10753;52.304;20.990;2022-08-21T07:43:28;45.90;1.00
21191;DHT22;10753;52.304;20.990;2022-08-21T07:45:54;46.20;1.00
21191;DHT22;10753;52.304;20.990;2022-08-21T07:48:24;46.70;1.00
21191;DHT22;10753;52.304;20.990;2022-08-21T07:50:49;46.90;1.00
21191;DHT22;10753;52.304;20.990;2022-08-21T07:53:16;46.40;1.00
21191;DHT22;10753;52.304;20.990;2022-08-21T07:55:42;47.00;1.00
21191;DHT22;10753;52.304;20.990;2022-08-21T07:58:08;47.30;1.00
21191;DHT22;10753;52.304;20.990;2022-08-21T08:00:33;47.80;1.00
21191;DHT22;10753;52.304;20.990;2022-08-21T08:03:00;47.90;1.00
21191;DHT22;10753;52.304;20.990;2022-08-21T08:05:29;47.70;1.00
21191;DHT22;10753;52.304;20.990;2022-08-21T08:07:55;47.60;1.00
21191;DHT22;10753;52.304;20.990;2022-08-21T08:10:22;47.10;1.00
21191;DHT22;10753;52.304;20.990;2022-08-21T08:12:48;46.90;1.00
21191;DHT22;10753;52.304;20.990;2022-08-21T08:15:16;47.30;1.00
21191;DHT22;10753;52.304;20.990;2022-08-21T08:17:42;48.00;1.00
21191;DHT22;10753;52.304;20.990;2022-08-21T08:20:09;49.00;1.00
21191;DHT22;10753;52.304;20.990;2022-08-21T08:22:36;49.90;1.00
21191;DHT22;10753;52.304;20.990;2022-08-21T08:25:03;50.20;1.00
21191;DHT22;10753;52.304;20.990;2022-08-21T08:27:30;50.00;1.00
21191;DHT22;10753;52.304;20.990;2022-08-21T08:29:56;50.80;1.00
21191;DHT22;10753;52.304;20.990;2022-08-21T08:32:21;51.40;1.00
21191;DHT22;10753;52.304;20.990;2022-08-21T08:34:48;51.70;1.00
21191;DHT22;10753;52.304;20.990;2022-08-21T08:37:14;52.20;1.00
21191;DHT22;10753;52.304;20.990;2022-08-21T08:39:41;52.60;1.00
21191;DHT22;10753;52.304;20.990;2022-08-21T08:44:40;53.00;1.00
21191;DHT22;10753;52.304;20.990;2022-08-21T08:47:07;53.10;1.00
21191;DHT22;10753;52.304;20.990;2022-08-21T08:49:43;53.60;1.00
21191;DHT22;10753;52.304;20.990;2022-08-21T08:52:25;53.80;1.00
21191;DHT22;10753;52.304;20.990;2022-08-21T08:57:31;54.20;1.00
21191;DHT22;10753;52.304;20.990;2022-08-21T09:00:00;54.10;1.00
21191;DHT22;10753;52.304;20.990;2022-08-21T09:02:26;54.50;1.00
21191;DHT22;10753;52.304;20.990;2022-08-21T09:04:55;54.70;1.00
21191;DHT22;10753;52.304;20.990;2022-08-21T09:07:47;54.70;1.00
21191;DHT22;10753;52.304;20.990;2022-08-21T09:10:38;54.50;1.00
21191;DHT22;10753;52.304;20.990;2022-08-21T09:16:24;50.60;1.00
21191;DHT22;10753;52.304;20.990;2022-08-21T09:18:58;50.60;1.00
21191;DHT22;10753;52.304;20.990;2022-08-21T09:21:40;50.60;1.00
21191;DHT22;10753;52.304;20.990;2022-08-21T09:24:37;52.00;1.00
21191;DHT22;10753;52.304;20.990;2022-08-21T09:27:11;53.90;1.00
21191;DHT22;10753;52.304;20.990;2022-08-21T09:29:40;54.60;1.00
21191;DHT22;10753;52.304;20.990;2022-08-21T09:32:15;53.80;1.00
21191;DHT22;10753;52.304;20.990;2022-08-21T09:37:35;51.70;1.00
21191;DHT22;10753;52.304;20.990;2022-08-21T09:40:03;48.00;1.00
21191;DHT22;10753;52.304;20.990;2022-08-21T09:42:40;44.90;1.00
21191;DHT22;10753;52.304;20.990;2022-08-21T09:47:35;43.10;1.00
21191;DHT22;10753;52.304;20.990;2022-08-21T09:50:16;42.40;1.00
21191;DHT22;10753;52.304;20.990;2022-08-21T09:52:45;40.20;1.00
21191;DHT22;10753;52.304;20.990;2022-08-21T09:55:18;39.40;1.00
21191;DHT22;10753;52.304;20.990;2022-08-21T09:58:05;43.70;1.00
21191;DHT22;10753;52.304;20.990;2022-08-21T10:00:33;47.70;1.00
21191;DHT22;10753;52.304;20.990;2022-08-21T10:03:18;47.20;1.00
21191;DHT22;10753;52.304;20.990;2022-08-21T10:06:04;43.80;1.00
21191;DHT22;10753;52.304;20.990;2022-08-21T10:08:35;41.00;1.00
21191;DHT22;10753;52.304;20.990;2022-08-21T10:11:11;38.80;1.00
21191;DHT22;10753;52.304;20.990;2022-08-21T10:13:44;37.20;1.00
21191;DHT22;10753;52.304;20.990;2022-08-21T10:16:18;36.00;1.00
21191;DHT22;10753;52.304;20.990;2022-08-21T10:22:00;34.30;1.00
21191;DHT22;10753;52.304;20.990;2022-08-21T10:24:44;33.40;1.00
21191;DHT22;10753;52.304;20.990;2022-08-21T10:27:52;32.90;1.00
21191;DHT22;10753;52.304;20.990;2022-08-21T10:30:38;32.90;1.00
21191;DHT22;10753;52.304;20.990;2022-08-21T10:36:21;33.70;1.00
21191;DHT22;10753;52.304;20.990;2022-08-21T10:39:19;33.90;1.00
21191;DHT22;10753;52.304;20.990;2022-08-21T10:44:40;34.10;1.00
21191;DHT22;10753;52.304;20.990;2022-08-21T10:47:18;33.90;1.00
21191;DHT22;10753;52.304;20.990;2022-08-21T10:52:56;34.10;1.00
21191;DHT22;10753;52.304;20.990;2022-08-21T10:55:39;34.60;1.00
21191;DHT22;10753;52.304;20.990;2022-08-21T10:58:12;35.70;1.00
21191;DHT22;10753;52.304;20.990;2022-08-21T11:00:53;38.30;1.00
21191;DHT22;10753;52.304;20.990;2022-08-21T11:06:11;39.80;1.00
21191;DHT22;10753;52.304;20.990;2022-08-21T11:08:45;38.90;1.00
21191;DHT22;10753;52.304;20.990;2022-08-21T11:11:36;42.20;1.00
21191;DHT22;10753;52.304;20.990;2022-08-21T11:16:46;48.00;1.00
21191;DHT22;10753;52.304;20.990;2022-08-21T11:19:28;49.00;1.00
21191;DHT22;10753;52.304;20.990;2022-08-21T11:29:58;49.10;1.00
21191;DHT22;10753;52.304;20.990;2022-08-21T11:32:57;48.90;1.00
21191;DHT22;10753;52.304;20.990;2022-08-21T11:40:54;48.90;1.00
21191;DHT22;10753;52.304;20.990;2022-08-21T11:43:39;49.60;1.00
21191;DHT22;10753;52.304;20.990;2022-08-21T11:51:41;51.10;1.00
21191;DHT22;10753;52.304;20.990;2022-08-21T11:54:26;49.90;1.00
21191;DHT22;10753;52.304;20.990;2022-08-21T11:57:02;46.10;1.00
21191;DHT22;10753;52.304;20.990;2022-08-21T12:00:00;42.90;1.00
21191;DHT22;10753;52.304;20.990;2022-08-21T12:02:33;41.90;1.00
21191;DHT22;10753;52.304;20.990;2022-08-21T12:05:22;44.90;1.00
21191;DHT22;10753;52.304;20.990;2022-08-21T12:07:48;47.40;1.00
21191;DHT22;10753;52.304;20.990;2022-08-21T12:10:39;49.60;1.00
21191;DHT22;10753;52.304;20.990;2022-08-21T12:13:28;51.30;1.00
21191;DHT22;10753;52.304;20.990;2022-08-21T12:16:08;51.90;1.00
21191;DHT22;10753;52.304;20.990;2022-08-21T12:18:34;51.70;1.00
21191;DHT22;10753;52.304;20.990;2022-08-21T12:21:25;52.00;1.00
21191;DHT22;10753;52.304;20.990;2022-08-21T12:26:58;49.50;1.00
21191;DHT22;10753;52.304;20.990;2022-08-21T12:29:28;46.30;1.00
21191;DHT22;10753;52.304;20.990;2022-08-21T12:31:56;43.10;1.00
21191;DHT22;10753;52.304;20.990;2022-08-21T12:34:38;41.10;1.00
21191;DHT22;10753;52.304;20.990;2022-08-21T12:37:28;39.60;1.00
21191;DHT22;10753;52.304;20.990;2022-08-21T12:39:58;39.40;1.00
21191;DHT22;10753;52.304;20.990;2022-08-21T12:45:02;38.40;1.00
21191;DHT22;10753;52.304;20.990;2022-08-21T12:47:34;37.90;1.00
21191;DHT22;10753;52.304;20.990;2022-08-21T12:50:13;37.70;1.00
21191;DHT22;10753;52.304;20.990;2022-08-21T12:52:51;37.20;1.00
21191;DHT22;10753;52.304;20.990;2022-08-21T12:55:27;36.90;1.00
21191;DHT22;10753;52.304;20.990;2022-08-21T12:57:53;36.80;1.00
21191;DHT22;10753;52.304;20.990;2022-08-21T13:00:24;37.20;1.00
21191;DHT22;10753;52.304;20.990;2022-08-21T13:02:51;38.00;1.00
21191;DHT22;10753;52.304;20.990;2022-08-21T13:07:53;42.80;1.00
21191;DHT22;10753;52.304;20.990;2022-08-21T13:10:29;44.10;1.00
21191;DHT22;10753;52.304;20.990;2022-08-21T13:12:58;45.40;1.00
21191;DHT22;10753;52.304;20.990;2022-08-21T13:15:36;46.20;1.00
21191;DHT22;10753;52.304;20.990;2022-08-21T13:18:04;46.40;1.00
21191;DHT22;10753;52.304;20.990;2022-08-21T13:20:34;46.80;1.00
21191;DHT22;10753;52.304;20.990;2022-08-21T13:23:02;47.00;1.00
21191;DHT22;10753;52.304;20.990;2022-08-21T13:25:33;46.40;1.00
21191;DHT22;10753;52.304;20.990;2022-08-21T13:28:11;45.50;1.00
21191;DHT22;10753;52.304;20.990;2022-08-21T13:30:52;44.50;1.00
21191;DHT22;10753;52.304;20.990;2022-08-21T13:33:22;44.20;1.00
21191;DHT22;10753;52.304;20.990;2022-08-21T13:36:09;44.90;1.00
21191;DHT22;10753;52.304;20.990;2022-08-21T13:38:36;45.00;1.00
21191;DHT22;10753;52.304;20.990;2022-08-21T13:41:16;45.20;1.00
21191;DHT22;10753;52.304;20.990;2022-08-21T13:43:47;44.20;1.00
21191;DHT22;10753;52.304;20.990;2022-08-21T13:46:14;44.00;1.00
21191;DHT22;10753;52.304;20.990;2022-08-21T13:48:41;44.20;1.00
21191;DHT22;10753;52.304;20.990;2022-08-21T13:51:07;44.50;1.00
21191;DHT22;10753;52.304;20.990;2022-08-21T13:53:36;44.20;1.00
21191;DHT22;10753;52.304;20.990;2022-08-21T13:56:33;44.10;1.00
21191;DHT22;10753;52.304;20.990;2022-08-21T13:59:00;43.80;1.00
21191;DHT22;10753;52.304;20.990;2022-08-21T14:01:30;43.20;1.00
21191;DHT22;10753;52.304;20.990;2022-08-21T14:04:16;42.20;1.00
21191;DHT22;10753;52.304;20.990;2022-08-21T14:06:44;42.00;1.00
21191;DHT22;10753;52.304;20.990;2022-08-21T14:09:13;41.00;1.00
21191;DHT22;10753;52.304;20.990;2022-08-21T14:11:41;40.60;1.00
21191;DHT22;10753;52.304;20.990;2022-08-21T14:14:33;40.60;1.00
21191;DHT22;10753;52.304;20.990;2022-08-21T14:17:05;39.40;1.00
21191;DHT22;10753;52.304;20.990;2022-08-21T14:19:39;37.70;1.00
21191;DHT22;10753;52.304;20.990;2022-08-21T14:22:29;36.60;1.00
21191;DHT22;10753;52.304;20.990;2022-08-21T14:27:33;37.40;1.00
21191;DHT22;10753;52.304;20.990;2022-08-21T14:30:04;38.10;1.00
21191;DHT22;10753;52.304;20.990;2022-08-21T14:32:38;38.60;1.00
21191;DHT22;10753;52.304;20.990;2022-08-21T14:35:05;39.20;1.00
21191;DHT22;10753;52.304;20.990;2022-08-21T14:37:31;39.50;1.00
21191;DHT22;10753;52.304;20.990;2022-08-21T14:39:57;39.80;1.00
21191;DHT22;10753;52.304;20.990;2022-08-21T14:42:23;40.00;1.00
21191;DHT22;10753;52.304;20.990;2022-08-21T14:44:50;39.30;1.00
21191;DHT22;10753;52.304;20.990;2022-08-21T14:47:16;39.10;1.00
21191;DHT22;10753;52.304;20.990;2022-08-21T14:49:41;39.10;1.00
21191;DHT22;10753;52.304;20.990;2022-08-21T14:52:08;39.10;1.00
21191;DHT22;10753;52.304;20.990;2022-08-21T14:54:34;39.00;1.00
21191;DHT22;10753;52.304;20.990;2022-08-21T14:57:08;38.70;1.00
21191;DHT22;10753;52.304;20.990;2022-08-21T14:59:35;38.70;1.00
21191;DHT22;10753;52.304;20.990;2022-08-21T15:02:02;38.70;1.00
21191;DHT22;10753;52.304;20.990;2022-08-21T15:04:29;38.60;1.00
21191;DHT22;10753;52.304;20.990;2022-08-21T15:06:55;38.40;1.00
21191;DHT22;10753;52.304;20.990;2022-08-21T15:09:21;38.20;1.00
21191;DHT22;10753;52.304;20.990;2022-08-21T15:11:47;37.70;1.00
21191;DHT22;10753;52.304;20.990;2022-08-21T15:14:19;37.10;1.00
21191;DHT22;10753;52.304;20.990;2022-08-21T15:16:45;36.90;1.00
21191;DHT22;10753;52.304;20.990;2022-08-21T15:19:11;36.60;1.00
21191;DHT22;10753;52.304;20.990;2022-08-21T15:21:36;36.10;1.00
21191;DHT22;10753;52.304;20.990;2022-08-21T15:24:02;35.70;1.00
21191;DHT22;10753;52.304;20.990;2022-08-21T15:26:28;35.30;1.00
21191;DHT22;10753;52.304;20.990;2022-08-21T15:28:54;34.80;1.00
21191;DHT22;10753;52.304;20.990;2022-08-21T15:31:19;34.20;1.00
21191;DHT22;10753;52.304;20.990;2022-08-21T15:33:45;33.70;1.00
21191;DHT22;10753;52.304;20.990;2022-08-21T15:36:11;33.30;1.00
21191;DHT22;10753;52.304;20.990;2022-08-21T15:38:36;32.70;1.00
21191;DHT22;10753;52.304;20.990;2022-08-21T15:41:03;32.00;1.00
21191;DHT22;10753;52.304;20.990;2022-08-21T15:43:47;31.30;1.00
21191;DHT22;10753;52.304;20.990;2022-08-21T15:46:15;30.70;1.00
21191;DHT22;10753;52.304;20.990;2022-08-21T15:48:41;30.40;1.00
21191;DHT22;10753;52.304;20.990;2022-08-21T15:51:11;30.20;1.00
21191;DHT22;10753;52.304;20.990;2022-08-21T15:53:36;29.80;1.00
21191;DHT22;10753;52.304;20.990;2022-08-21T15:56:04;29.40;1.00
21191;DHT22;10753;52.304;20.990;2022-08-21T15:58:31;29.10;1.00
21191;DHT22;10753;52.304;20.990;2022-08-21T16:01:00;28.90;1.00
21191;DHT22;10753;52.304;20.990;2022-08-21T16:03:26;28.60;1.00
21191;DHT22;10753;52.304;20.990;2022-08-21T16:05:52;28.50;1.00
21191;DHT22;10753;52.304;20.990;2022-08-21T16:08:21;28.20;1.00
21191;DHT22;10753;52.304;20.990;2022-08-21T16:10:47;28.00;1.00
21191;DHT22;10753;52.304;20.990;2022-08-21T16:13:25;27.90;1.00
21191;DHT22;10753;52.304;20.990;2022-08-21T16:15:52;27.70;1.00
21191;DHT22;10753;52.304;20.990;2022-08-21T16:18:19;27.60;1.00
21191;DHT22;10753;52.304;20.990;2022-08-21T16:20:45;27.50;1.00
21191;DHT22;10753;52.304;20.990;2022-08-21T16:23:11;27.40;1.00
21191;DHT22;10753;52.304;20.990;2022-08-21T16:25:38;27.30;1.00
21191;DHT22;10753;52.304;20.990;2022-08-21T16:28:07;27.20;1.00
21191;DHT22;10753;52.304;20.990;2022-08-21T16:30:34;27.10;1.00
21191;DHT22;10753;52.304;20.990;2022-08-21T16:33:01;27.00;1.00
21191;DHT22;10753;52.304;20.990;2022-08-21T16:35:28;26.80;1.00
21191;DHT22;10753;52.304;20.990;2022-08-21T16:37:53;26.80;1.00
21191;DHT22;10753;52.304;20.990;2022-08-21T16:40:20;26.60;1.00
21191;DHT22;10753;52.304;20.990;2022-08-21T16:42:48;26.60;1.00
21191;DHT22;10753;52.304;20.990;2022-08-21T16:45:16;26.40;1.00